Airfield :







YOU CAN JOIN US ON...

 
LOGIN :

Register | Disclaimer

   EN    FR    IT 

 









Legend :    VFR   Marginal VFR   IFR   Intensive IFR   Very Intensive IFR
Visi :
Ceiling :
>= 8 km
>= 3000ft
5 to 8 km
1000 to 3000 ft
1500m to 5 km
500 to 1000 ft
800 to 1500m
200 to 500 ft
< 800m
< 200 ft
Symbols :   Thunderstorms  Fog  Heavy snow  Heavy precipitations  Wind > 20 kt






- Airport Elevation : 342 ft


KCON - Concord Municipal

CURRENT METAR :
  • 252251Z AUTO 15005KT 10SM CLR 19/13 A3019 RMK AO2 SLP223 T01890133

EXPIRED METARs :
  • 252200Z AUTO 14006KT 10SM SCT023 BKN047 19/13 A3019 RMK AO2 T01940133
  • 252151Z AUTO 15007KT 10SM BKN023 BKN047 19/13 A3019 RMK AO2 SLP225 T01940128
  • 252051Z AUTO 17007KT 10SM SCT033 OVC042 19/13 A3022 RMK AO2 SLP234 T01890128 58014

TAF KCON
Valid from the 26 at 00:00 until the 27 at 00:00 UTC


252320Z 2600/2624 14002KT P6SM OVC015
FM260600 00000KT 6SM BR OVC004
FM260900 00000KT 2SM BR OVC004
FM261200 00000KT 6SM BR OVC007
FM261500 19004KT P6SM FEW250
KZBW FIR / North America



MET'MAP, your aeronautical weather chart ! - Copyright ORBIFLY December 2007 - Disclaimer

ORBIFLY MET'MAP TEAM :

Programming & Development : Alexandra Zaïnal
Concept & original design : Baudouin d'Aumeries
Assistance for programming : Marc-Olivier Méhu
Technical & hardware support : Manuel Goepfert

Contact : metmap@orbifly.com




SOURCES & CREDITS :

   NOAA